Main page
METAR-TAF:

METAR-TAF

Airports :

Athens International Airport

Athens, Greece

latitude: 37-56N, longitude: 023-56E, elevation: 94 m

Current weather observation

The report was made 17 minutes ago, at 16:50 UTC
Wind 7 kt from the North/Northeast
Temperature 18°C
Humidity 77%
Pressure 1016 hPa
Visibility 10 km or more
Few clouds at a height of 3000 ft

METAR: LGAV 181650Z 03007KT 9999 FEW030 18/14 Q1016 NOSIG

Time: 20:07 (17:07 UTC)

Forecast

The report was made 6 hours and 7 minutes ago, at 11:00 UTC
Forecast valid from 18 at 12 UTC to 19 at 12 UTC
Wind 12 kt from the North/Northeast
Visibility 10 km or more
Few clouds at a height of 1800 ft
Scattered clouds at a height of 3500 ft

TAF: LGAV 181100Z 1812/1912 02012KT 9999 FEW018 SCT035

Weather observations and forecasts of more than 4000 airports (METAR and TAF reports).

The available stations are represented by yellow and red dots on the map.

Hover mouse over dot to see the name of the station.

Then click to see weather observations and forecasts.

To change the map : click on the green buttons with a black cross to zoom in, on the green button with a dash to zoom out, or on the green arrows for adjacent maps.


METAR-TAF: